sensor_id;sensor_type;location;lat;lon;timestamp;P1;durP1;ratioP1;P2;durP2;ratioP2
11537;SDS011;50159;49.426;11.182;2023-08-20T00:01:28;6.23;;;5.37;;
11537;SDS011;50159;49.426;11.182;2023-08-20T00:03:56;5.80;;;5.13;;
11537;SDS011;50159;49.426;11.182;2023-08-20T00:06:23;7.17;;;4.80;;
11537;SDS011;50159;49.426;11.182;2023-08-20T00:08:50;5.93;;;5.10;;
11537;SDS011;50159;49.426;11.182;2023-08-20T00:11:17;6.00;;;5.10;;
11537;SDS011;50159;49.426;11.182;2023-08-20T00:13:44;5.43;;;5.13;;
11537;SDS011;50159;49.426;11.182;2023-08-20T00:16:11;5.63;;;5.07;;
11537;SDS011;50159;49.426;11.182;2023-08-20T00:18:38;5.70;;;5.20;;
11537;SDS011;50159;49.426;11.182;2023-08-20T00:21:06;6.07;;;5.13;;
11537;SDS011;50159;49.426;11.182;2023-08-20T00:23:34;7.60;;;5.50;;
11537;SDS011;50159;49.426;11.182;2023-08-20T00:26:02;5.63;;;5.00;;
11537;SDS011;50159;49.426;11.182;2023-08-20T00:28:29;5.50;;;4.97;;
11537;SDS011;50159;49.426;11.182;2023-08-20T00:30:56;5.60;;;5.10;;
11537;SDS011;50159;49.426;11.182;2023-08-20T00:33:22;5.27;;;4.97;;
11537;SDS011;50159;49.426;11.182;2023-08-20T00:35:49;6.07;;;5.57;;
11537;SDS011;50159;49.426;11.182;2023-08-20T00:38:16;7.97;;;5.50;;
11537;SDS011;50159;49.426;11.182;2023-08-20T00:40:43;9.07;;;5.70;;
11537;SDS011;50159;49.426;11.182;2023-08-20T00:43:09;5.87;;;4.90;;
11537;SDS011;50159;49.426;11.182;2023-08-20T00:45:36;8.00;;;5.40;;
11537;SDS011;50159;49.426;11.182;2023-08-20T00:48:03;5.40;;;4.87;;
11537;SDS011;50159;49.426;11.182;2023-08-20T00:50:31;5.90;;;5.30;;
11537;SDS011;50159;49.426;11.182;2023-08-20T00:52:59;5.80;;;5.30;;
11537;SDS011;50159;49.426;11.182;2023-08-20T00:55:25;5.60;;;5.10;;
11537;SDS011;50159;49.426;11.182;2023-08-20T00:57:53;7.93;;;5.13;;
11537;SDS011;50159;49.426;11.182;2023-08-20T01:00:20;6.83;;;5.57;;
11537;SDS011;50159;49.426;11.182;2023-08-20T01:02:49;8.03;;;5.50;;
11537;SDS011;50159;49.426;11.182;2023-08-20T01:05:16;6.10;;;5.47;;
11537;SDS011;50159;49.426;11.182;2023-08-20T01:08:02;7.33;;;5.50;;
11537;SDS011;50159;49.426;11.182;2023-08-20T01:10:49;5.47;;;5.07;;
11537;SDS011;50159;49.426;11.182;2023-08-20T01:13:22;7.70;;;5.50;;
11537;SDS011;50159;49.426;11.182;2023-08-20T01:15:50;7.20;;;4.97;;
11537;SDS011;50159;49.426;11.182;2023-08-20T01:18:17;5.90;;;5.50;;
11537;SDS011;50159;49.426;11.182;2023-08-20T01:21:02;5.83;;;5.30;;
11537;SDS011;50159;49.426;11.182;2023-08-20T01:23:56;5.73;;;5.27;;
11537;SDS011;50159;49.426;11.182;2023-08-20T01:26:40;7.57;;;6.07;;
11537;SDS011;50159;49.426;11.182;2023-08-20T01:29:31;6.23;;;5.47;;
11537;SDS011;50159;49.426;11.182;2023-08-20T01:31:59;10.97;;;5.77;;
11537;SDS011;50159;49.426;11.182;2023-08-20T01:34:26;7.33;;;5.47;;
11537;SDS011;50159;49.426;11.182;2023-08-20T01:36:53;6.00;;;4.80;;
11537;SDS011;50159;49.426;11.182;2023-08-20T01:39:19;7.07;;;5.43;;
11537;SDS011;50159;49.426;11.182;2023-08-20T01:41:46;7.10;;;5.70;;
11537;SDS011;50159;49.426;11.182;2023-08-20T01:44:13;5.33;;;5.03;;
11537;SDS011;50159;49.426;11.182;2023-08-20T01:46:40;6.87;;;6.27;;
11537;SDS011;50159;49.426;11.182;2023-08-20T01:49:06;9.73;;;5.20;;
11537;SDS011;50159;49.426;11.182;2023-08-20T01:51:33;7.80;;;5.43;;
11537;SDS011;50159;49.426;11.182;2023-08-20T01:54:00;7.93;;;5.67;;
11537;SDS011;50159;49.426;11.182;2023-08-20T01:56:26;6.47;;;5.37;;
11537;SDS011;50159;49.426;11.182;2023-08-20T01:58:53;12.83;;;5.63;;
11537;SDS011;50159;49.426;11.182;2023-08-20T02:01:20;7.80;;;6.07;;
11537;SDS011;50159;49.426;11.182;2023-08-20T02:03:47;8.33;;;5.93;;
11537;SDS011;50159;49.426;11.182;2023-08-20T02:06:13;6.27;;;5.30;;
11537;SDS011;50159;49.426;11.182;2023-08-20T02:08:40;5.93;;;5.43;;
11537;SDS011;50159;49.426;11.182;2023-08-20T02:11:07;5.93;;;5.40;;
11537;SDS011;50159;49.426;11.182;2023-08-20T02:13:33;5.73;;;5.27;;
11537;SDS011;50159;49.426;11.182;2023-08-20T02:16:04;8.53;;;5.93;;
11537;SDS011;50159;49.426;11.182;2023-08-20T02:18:31;6.13;;;5.73;;
11537;SDS011;50159;49.426;11.182;2023-08-20T02:20:58;7.23;;;5.73;;
11537;SDS011;50159;49.426;11.182;2023-08-20T02:23:25;6.00;;;5.50;;
11537;SDS011;50159;49.426;11.182;2023-08-20T02:25:52;7.20;;;6.00;;
11537;SDS011;50159;49.426;11.182;2023-08-20T02:28:19;5.70;;;5.20;;
11537;SDS011;50159;49.426;11.182;2023-08-20T02:30:46;7.57;;;5.57;;
11537;SDS011;50159;49.426;11.182;2023-08-20T02:33:13;6.10;;;5.57;;
11537;SDS011;50159;49.426;11.182;2023-08-20T02:35:40;6.17;;;5.67;;
11537;SDS011;50159;49.426;11.182;2023-08-20T02:38:07;7.17;;;5.93;;
11537;SDS011;50159;49.426;11.182;2023-08-20T02:40:39;7.03;;;5.63;;
11537;SDS011;50159;49.426;11.182;2023-08-20T02:43:07;6.20;;;5.27;;
11537;SDS011;50159;49.426;11.182;2023-08-20T02:45:39;6.37;;;5.77;;
11537;SDS011;50159;49.426;11.182;2023-08-20T02:48:07;5.93;;;5.43;;
11537;SDS011;50159;49.426;11.182;2023-08-20T02:50:34;7.53;;;5.90;;
11537;SDS011;50159;49.426;11.182;2023-08-20T02:53:00;11.20;;;5.97;;
11537;SDS011;50159;49.426;11.182;2023-08-20T02:55:27;6.57;;;5.97;;
11537;SDS011;50159;49.426;11.182;2023-08-20T02:57:55;6.20;;;5.70;;
11537;SDS011;50159;49.426;11.182;2023-08-20T03:00:22;6.00;;;5.50;;
11537;SDS011;50159;49.426;11.182;2023-08-20T03:02:49;6.17;;;5.60;;
11537;SDS011;50159;49.426;11.182;2023-08-20T03:05:16;7.33;;;6.20;;
11537;SDS011;50159;49.426;11.182;2023-08-20T03:07:42;6.57;;;5.97;;
11537;SDS011;50159;49.426;11.182;2023-08-20T03:10:09;6.00;;;5.40;;
11537;SDS011;50159;49.426;11.182;2023-08-20T03:12:36;8.57;;;5.90;;
11537;SDS011;50159;49.426;11.182;2023-08-20T03:15:03;6.10;;;5.63;;
11537;SDS011;50159;49.426;11.182;2023-08-20T03:17:30;7.13;;;6.13;;
11537;SDS011;50159;49.426;11.182;2023-08-20T03:19:59;5.97;;;5.47;;
11537;SDS011;50159;49.426;11.182;2023-08-20T03:22:27;7.80;;;5.20;;
11537;SDS011;50159;49.426;11.182;2023-08-20T03:24:53;7.97;;;5.87;;
11537;SDS011;50159;49.426;11.182;2023-08-20T03:27:21;7.70;;;6.10;;
11537;SDS011;50159;49.426;11.182;2023-08-20T03:29:47;8.77;;;5.70;;
11537;SDS011;50159;49.426;11.182;2023-08-20T03:32:14;5.53;;;5.13;;
11537;SDS011;50159;49.426;11.182;2023-08-20T03:34:41;6.63;;;6.07;;
11537;SDS011;50159;49.426;11.182;2023-08-20T03:37:08;6.63;;;5.93;;
11537;SDS011;50159;49.426;11.182;2023-08-20T03:39:34;8.13;;;5.73;;
11537;SDS011;50159;49.426;11.182;2023-08-20T03:42:01;5.90;;;5.50;;
11537;SDS011;50159;49.426;11.182;2023-08-20T03:44:28;6.60;;;6.10;;
11537;SDS011;50159;49.426;11.182;2023-08-20T03:46:56;7.03;;;6.10;;
11537;SDS011;50159;49.426;11.182;2023-08-20T03:49:23;7.20;;;6.10;;
11537;SDS011;50159;49.426;11.182;2023-08-20T03:51:49;5.30;;;4.90;;
11537;SDS011;50159;49.426;11.182;2023-08-20T03:54:16;7.60;;;5.47;;
11537;SDS011;50159;49.426;11.182;2023-08-20T03:56:43;6.83;;;5.47;;
11537;SDS011;50159;49.426;11.182;2023-08-20T03:59:09;7.47;;;5.57;;
11537;SDS011;50159;49.426;11.182;2023-08-20T04:01:37;10.43;;;5.60;;
11537;SDS011;50159;49.426;11.182;2023-08-20T04:04:04;6.53;;;5.50;;
11537;SDS011;50159;49.426;11.182;2023-08-20T04:06:31;11.47;;;5.90;;
11537;SDS011;50159;49.426;11.182;2023-08-20T04:08:58;6.23;;;5.70;;
11537;SDS011;50159;49.426;11.182;2023-08-20T04:11:24;6.87;;;6.27;;
11537;SDS011;50159;49.426;11.182;2023-08-20T04:13:51;6.83;;;6.13;;
11537;SDS011;50159;49.426;11.182;2023-08-20T04:16:18;6.33;;;5.73;;
11537;SDS011;50159;49.426;11.182;2023-08-20T04:18:44;6.13;;;5.63;;
11537;SDS011;50159;49.426;11.182;2023-08-20T04:21:11;6.53;;;5.83;;
11537;SDS011;50159;49.426;11.182;2023-08-20T04:23:38;6.20;;;5.60;;
11537;SDS011;50159;49.426;11.182;2023-08-20T04:26:04;5.90;;;5.40;;
11537;SDS011;50159;49.426;11.182;2023-08-20T04:28:31;6.57;;;5.50;;
11537;SDS011;50159;49.426;11.182;2023-08-20T04:30:58;5.93;;;5.43;;
11537;SDS011;50159;49.426;11.182;2023-08-20T04:33:27;5.80;;;5.30;;
11537;SDS011;50159;49.426;11.182;2023-08-20T04:35:54;5.63;;;5.23;;
11537;SDS011;50159;49.426;11.182;2023-08-20T04:38:21;5.60;;;5.13;;
11537;SDS011;50159;49.426;11.182;2023-08-20T04:40:48;5.63;;;5.17;;
11537;SDS011;50159;49.426;11.182;2023-08-20T04:43:15;5.50;;;5.20;;
11537;SDS011;50159;49.426;11.182;2023-08-20T04:45:42;8.20;;;5.33;;
11537;SDS011;50159;49.426;11.182;2023-08-20T04:48:08;6.03;;;5.47;;
11537;SDS011;50159;49.426;11.182;2023-08-20T04:50:35;6.67;;;6.07;;
11537;SDS011;50159;49.426;11.182;2023-08-20T04:53:02;6.40;;;5.80;;
11537;SDS011;50159;49.426;11.182;2023-08-20T04:55:29;5.83;;;5.43;;
11537;SDS011;50159;49.426;11.182;2023-08-20T04:57:56;5.93;;;5.40;;
11537;SDS011;50159;49.426;11.182;2023-08-20T05:00:23;5.70;;;5.30;;
11537;SDS011;50159;49.426;11.182;2023-08-20T05:02:50;6.33;;;5.73;;
11537;SDS011;50159;49.426;11.182;2023-08-20T05:05:17;6.17;;;5.67;;
11537;SDS011;50159;49.426;11.182;2023-08-20T05:07:44;5.90;;;5.30;;
11537;SDS011;50159;49.426;11.182;2023-08-20T05:10:10;5.80;;;5.40;;
11537;SDS011;50159;49.426;11.182;2023-08-20T05:12:37;7.33;;;5.97;;
11537;SDS011;50159;49.426;11.182;2023-08-20T05:15:04;6.23;;;5.63;;
11537;SDS011;50159;49.426;11.182;2023-08-20T05:17:31;5.00;;;4.70;;
11537;SDS011;50159;49.426;11.182;2023-08-20T05:19:58;6.30;;;5.70;;
11537;SDS011;50159;49.426;11.182;2023-08-20T05:22:25;5.50;;;5.10;;
11537;SDS011;50159;49.426;11.182;2023-08-20T05:24:51;5.57;;;5.07;;
11537;SDS011;50159;49.426;11.182;2023-08-20T05:27:18;5.33;;;5.03;;
11537;SDS011;50159;49.426;11.182;2023-08-20T05:29:45;5.67;;;5.20;;
11537;SDS011;50159;49.426;11.182;2023-08-20T05:32:12;5.47;;;5.07;;
11537;SDS011;50159;49.426;11.182;2023-08-20T05:34:38;6.40;;;5.23;;
11537;SDS011;50159;49.426;11.182;2023-08-20T05:37:05;5.50;;;5.10;;
11537;SDS011;50159;49.426;11.182;2023-08-20T05:39:40;5.30;;;4.80;;
11537;SDS011;50159;49.426;11.182;2023-08-20T05:42:08;5.43;;;4.93;;
11537;SDS011;50159;49.426;11.182;2023-08-20T05:44:35;5.97;;;5.57;;
11537;SDS011;50159;49.426;11.182;2023-08-20T05:47:02;5.03;;;4.73;;
11537;SDS011;50159;49.426;11.182;2023-08-20T05:49:29;5.07;;;4.77;;
11537;SDS011;50159;49.426;11.182;2023-08-20T05:51:56;4.97;;;4.67;;
11537;SDS011;50159;49.426;11.182;2023-08-20T05:54:23;5.37;;;4.87;;
11537;SDS011;50159;49.426;11.182;2023-08-20T05:56:50;5.03;;;4.63;;
11537;SDS011;50159;49.426;11.182;2023-08-20T05:59:19;4.70;;;4.40;;
11537;SDS011;50159;49.426;11.182;2023-08-20T06:01:45;4.70;;;4.50;;
11537;SDS011;50159;49.426;11.182;2023-08-20T06:04:12;5.60;;;5.10;;
11537;SDS011;50159;49.426;11.182;2023-08-20T06:06:39;4.53;;;4.23;;
11537;SDS011;50159;49.426;11.182;2023-08-20T06:09:06;4.63;;;4.23;;
11537;SDS011;50159;49.426;11.182;2023-08-20T06:11:35;4.10;;;3.90;;
11537;SDS011;50159;49.426;11.182;2023-08-20T06:14:02;4.13;;;3.93;;
11537;SDS011;50159;49.426;11.182;2023-08-20T06:16:29;4.13;;;3.83;;
11537;SDS011;50159;49.426;11.182;2023-08-20T06:18:57;4.00;;;3.80;;
11537;SDS011;50159;49.426;11.182;2023-08-20T06:21:27;3.83;;;3.63;;
11537;SDS011;50159;49.426;11.182;2023-08-20T06:23:54;3.80;;;3.60;;
11537;SDS011;50159;49.426;11.182;2023-08-20T06:26:21;4.40;;;4.20;;
11537;SDS011;50159;49.426;11.182;2023-08-20T06:28:48;4.93;;;4.63;;
11537;SDS011;50159;49.426;11.182;2023-08-20T06:31:14;4.67;;;4.37;;
11537;SDS011;50159;49.426;11.182;2023-08-20T06:33:41;4.60;;;4.30;;
11537;SDS011;50159;49.426;11.182;2023-08-20T06:36:08;4.47;;;4.27;;
11537;SDS011;50159;49.426;11.182;2023-08-20T06:38:34;4.40;;;4.20;;
11537;SDS011;50159;49.426;11.182;2023-08-20T06:41:01;4.20;;;4.00;;
11537;SDS011;50159;49.426;11.182;2023-08-20T06:43:28;4.13;;;3.83;;
11537;SDS011;50159;49.426;11.182;2023-08-20T06:45:55;3.83;;;3.67;;
11537;SDS011;50159;49.426;11.182;2023-08-20T06:48:22;3.47;;;3.37;;
11537;SDS011;50159;49.426;11.182;2023-08-20T06:50:50;5.17;;;4.77;;
11537;SDS011;50159;49.426;11.182;2023-08-20T06:53:17;3.83;;;3.63;;
11537;SDS011;50159;49.426;11.182;2023-08-20T06:55:44;4.13;;;3.93;;
11537;SDS011;50159;49.426;11.182;2023-08-20T06:58:11;3.23;;;3.13;;
11537;SDS011;50159;49.426;11.182;2023-08-20T07:00:37;3.73;;;3.53;;
11537;SDS011;50159;49.426;11.182;2023-08-20T07:03:04;3.13;;;3.03;;
11537;SDS011;50159;49.426;11.182;2023-08-20T07:05:31;3.30;;;3.20;;
11537;SDS011;50159;49.426;11.182;2023-08-20T07:07:58;3.30;;;3.20;;
11537;SDS011;50159;49.426;11.182;2023-08-20T07:10:24;3.77;;;3.57;;
11537;SDS011;50159;49.426;11.182;2023-08-20T07:12:51;3.83;;;3.63;;
11537;SDS011;50159;49.426;11.182;2023-08-20T07:15:18;6.00;;;4.80;;
11537;SDS011;50159;49.426;11.182;2023-08-20T07:17:44;4.30;;;4.00;;
11537;SDS011;50159;49.426;11.182;2023-08-20T07:20:11;4.10;;;3.90;;
11537;SDS011;50159;49.426;11.182;2023-08-20T07:22:38;3.83;;;3.60;;
11537;SDS011;50159;49.426;11.182;2023-08-20T07:25:05;3.43;;;3.33;;
11537;SDS011;50159;49.426;11.182;2023-08-20T07:27:32;4.03;;;3.73;;
11537;SDS011;50159;49.426;11.182;2023-08-20T07:29:59;4.77;;;4.37;;
11537;SDS011;50159;49.426;11.182;2023-08-20T07:32:26;5.50;;;5.13;;
11537;SDS011;50159;49.426;11.182;2023-08-20T07:34:53;6.17;;;5.57;;
11537;SDS011;50159;49.426;11.182;2023-08-20T07:37:20;5.50;;;5.10;;
11537;SDS011;50159;49.426;11.182;2023-08-20T07:39:55;4.87;;;4.57;;
11537;SDS011;50159;49.426;11.182;2023-08-20T07:42:22;5.00;;;4.70;;
11537;SDS011;50159;49.426;11.182;2023-08-20T07:44:49;5.10;;;4.80;;
11537;SDS011;50159;49.426;11.182;2023-08-20T07:47:15;4.27;;;4.07;;
11537;SDS011;50159;49.426;11.182;2023-08-20T07:49:42;4.93;;;4.53;;
11537;SDS011;50159;49.426;11.182;2023-08-20T07:52:09;4.20;;;4.00;;
11537;SDS011;50159;49.426;11.182;2023-08-20T07:54:35;5.83;;;5.43;;
11537;SDS011;50159;49.426;11.182;2023-08-20T07:57:02;4.80;;;4.50;;
11537;SDS011;50159;49.426;11.182;2023-08-20T07:59:29;5.03;;;4.60;;
11537;SDS011;50159;49.426;11.182;2023-08-20T08:01:56;8.33;;;4.83;;
11537;SDS011;50159;49.426;11.182;2023-08-20T08:04:22;5.40;;;4.93;;
11537;SDS011;50159;49.426;11.182;2023-08-20T08:06:49;5.90;;;5.13;;
11537;SDS011;50159;49.426;11.182;2023-08-20T08:09:19;5.67;;;5.20;;
11537;SDS011;50159;49.426;11.182;2023-08-20T08:11:48;5.00;;;4.70;;
11537;SDS011;50159;49.426;11.182;2023-08-20T08:14:14;5.77;;;5.27;;
11537;SDS011;50159;49.426;11.182;2023-08-20T08:16:41;4.73;;;4.43;;
11537;SDS011;50159;49.426;11.182;2023-08-20T08:19:08;5.17;;;4.77;;
11537;SDS011;50159;49.426;11.182;2023-08-20T08:21:35;4.47;;;4.17;;
11537;SDS011;50159;49.426;11.182;2023-08-20T08:24:01;4.57;;;4.27;;
11537;SDS011;50159;49.426;11.182;2023-08-20T08:26:29;3.90;;;3.70;;
11537;SDS011;50159;49.426;11.182;2023-08-20T08:28:56;4.30;;;4.10;;
11537;SDS011;50159;49.426;11.182;2023-08-20T08:31:23;3.93;;;3.73;;
11537;SDS011;50159;49.426;11.182;2023-08-20T08:33:50;4.23;;;3.93;;
11537;SDS011;50159;49.426;11.182;2023-08-20T08:36:17;4.90;;;4.50;;
11537;SDS011;50159;49.426;11.182;2023-08-20T08:38:44;6.73;;;4.60;;
11537;SDS011;50159;49.426;11.182;2023-08-20T08:41:11;4.20;;;3.90;;
11537;SDS011;50159;49.426;11.182;2023-08-20T08:43:39;4.70;;;4.40;;
11537;SDS011;50159;49.426;11.182;2023-08-20T08:46:07;4.40;;;4.10;;
11537;SDS011;50159;49.426;11.182;2023-08-20T08:48:44;4.60;;;4.23;;
11537;SDS011;50159;49.426;11.182;2023-08-20T08:51:12;5.20;;;4.50;;
11537;SDS011;50159;49.426;11.182;2023-08-20T08:53:43;4.37;;;3.90;;
11537;SDS011;50159;49.426;11.182;2023-08-20T08:56:10;4.03;;;3.83;;
11537;SDS011;50159;49.426;11.182;2023-08-20T08:58:37;4.50;;;4.10;;
11537;SDS011;50159;49.426;11.182;2023-08-20T09:01:04;4.13;;;3.83;;
11537;SDS011;50159;49.426;11.182;2023-08-20T09:03:31;10.87;;;5.30;;
11537;SDS011;50159;49.426;11.182;2023-08-20T09:05:59;5.23;;;4.70;;
11537;SDS011;50159;49.426;11.182;2023-08-20T09:08:30;4.40;;;4.13;;
11537;SDS011;50159;49.426;11.182;2023-08-20T09:10:57;4.30;;;4.00;;
11537;SDS011;50159;49.426;11.182;2023-08-20T09:13:26;3.90;;;3.60;;
11537;SDS011;50159;49.426;11.182;2023-08-20T09:15:58;4.23;;;4.03;;
11537;SDS011;50159;49.426;11.182;2023-08-20T09:18:26;4.50;;;4.17;;
11537;SDS011;50159;49.426;11.182;2023-08-20T09:20:52;4.10;;;3.90;;
11537;SDS011;50159;49.426;11.182;2023-08-20T09:23:19;4.87;;;4.37;;
11537;SDS011;50159;49.426;11.182;2023-08-20T09:25:46;5.17;;;3.57;;
11537;SDS011;50159;49.426;11.182;2023-08-20T09:28:13;4.10;;;3.80;;
11537;SDS011;50159;49.426;11.182;2023-08-20T09:30:40;3.80;;;3.50;;
11537;SDS011;50159;49.426;11.182;2023-08-20T09:33:20;4.13;;;3.80;;
11537;SDS011;50159;49.426;11.182;2023-08-20T09:35:50;5.10;;;3.40;;
11537;SDS011;50159;49.426;11.182;2023-08-20T09:38:23;5.40;;;3.57;;
11537;SDS011;50159;49.426;11.182;2023-08-20T09:40:51;8.77;;;4.13;;
11537;SDS011;50159;49.426;11.182;2023-08-20T09:43:19;6.10;;;4.37;;
11537;SDS011;50159;49.426;11.182;2023-08-20T09:45:47;4.23;;;3.83;;
11537;SDS011;50159;49.426;11.182;2023-08-20T09:48:18;4.13;;;3.73;;
11537;SDS011;50159;49.426;11.182;2023-08-20T09:50:46;4.17;;;3.73;;
11537;SDS011;50159;49.426;11.182;2023-08-20T09:55:47;4.33;;;3.40;;
11537;SDS011;50159;49.426;11.182;2023-08-20T09:58:16;5.07;;;3.30;;
11537;SDS011;50159;49.426;11.182;2023-08-20T10:00:48;4.80;;;3.57;;
11537;SDS011;50159;49.426;11.182;2023-08-20T10:03:20;5.43;;;3.40;;
11537;SDS011;50159;49.426;11.182;2023-08-20T10:05:49;3.70;;;3.50;;
11537;SDS011;50159;49.426;11.182;2023-08-20T10:08:16;3.43;;;3.23;;
11537;SDS011;50159;49.426;11.182;2023-08-20T10:10:43;2.90;;;2.80;;
11537;SDS011;50159;49.426;11.182;2023-08-20T10:13:12;4.10;;;3.23;;
11537;SDS011;50159;49.426;11.182;2023-08-20T10:15:39;4.73;;;3.30;;
11537;SDS011;50159;49.426;11.182;2023-08-20T10:18:11;5.07;;;3.17;;
11537;SDS011;50159;49.426;11.182;2023-08-20T10:20:39;3.43;;;3.17;;
11537;SDS011;50159;49.426;11.182;2023-08-20T10:23:08;3.10;;;3.00;;
11537;SDS011;50159;49.426;11.182;2023-08-20T10:25:41;7.57;;;3.57;;
11537;SDS011;50159;49.426;11.182;2023-08-20T10:31:02;6.60;;;3.50;;
11537;SDS011;50159;49.426;11.182;2023-08-20T10:33:30;4.80;;;3.63;;
11537;SDS011;50159;49.426;11.182;2023-08-20T10:35:56;4.33;;;3.70;;
11537;SDS011;50159;49.426;11.182;2023-08-20T10:38:23;2.93;;;2.83;;
11537;SDS011;50159;49.426;11.182;2023-08-20T10:40:56;3.67;;;3.47;;
11537;SDS011;50159;49.426;11.182;2023-08-20T10:43:29;10.03;;;3.47;;
11537;SDS011;50159;49.426;11.182;2023-08-20T10:46:07;4.60;;;3.80;;
11537;SDS011;50159;49.426;11.182;2023-08-20T10:51:24;4.50;;;3.97;;
11537;SDS011;50159;49.426;11.182;2023-08-20T10:54:03;4.00;;;3.70;;
11537;SDS011;50159;49.426;11.182;2023-08-20T10:56:47;5.57;;;4.00;;
11537;SDS011;50159;49.426;11.182;2023-08-20T10:59:15;5.37;;;3.83;;
11537;SDS011;50159;49.426;11.182;2023-08-20T11:01:53;8.03;;;3.63;;
11537;SDS011;50159;49.426;11.182;2023-08-20T11:04:22;3.27;;;3.10;;
11537;SDS011;50159;49.426;11.182;2023-08-20T11:06:50;3.93;;;3.40;;
11537;SDS011;50159;49.426;11.182;2023-08-20T11:09:28;3.53;;;3.33;;
11537;SDS011;50159;49.426;11.182;2023-08-20T11:11:55;10.17;;;3.70;;
11537;SDS011;50159;49.426;11.182;2023-08-20T11:14:23;4.93;;;3.40;;
11537;SDS011;50159;49.426;11.182;2023-08-20T11:16:50;4.53;;;3.63;;
11537;SDS011;50159;49.426;11.182;2023-08-20T11:19:21;3.90;;;3.60;;
11537;SDS011;50159;49.426;11.182;2023-08-20T11:21:48;3.83;;;3.60;;
11537;SDS011;50159;49.426;11.182;2023-08-20T11:24:16;7.33;;;3.57;;
11537;SDS011;50159;49.426;11.182;2023-08-20T11:26:44;4.27;;;3.90;;
11537;SDS011;50159;49.426;11.182;2023-08-20T11:29:12;4.93;;;3.90;;
11537;SDS011;50159;49.426;11.182;2023-08-20T11:31:39;3.70;;;3.50;;
11537;SDS011;50159;49.426;11.182;2023-08-20T11:34:07;4.30;;;3.50;;
11537;SDS011;50159;49.426;11.182;2023-08-20T11:36:34;5.10;;;4.17;;
11537;SDS011;50159;49.426;11.182;2023-08-20T11:39:01;4.30;;;4.00;;
11537;SDS011;50159;49.426;11.182;2023-08-20T11:41:28;4.23;;;3.93;;
11537;SDS011;50159;49.426;11.182;2023-08-20T11:43:55;5.47;;;4.10;;
11537;SDS011;50159;49.426;11.182;2023-08-20T11:46:22;4.10;;;3.60;;
11537;SDS011;50159;49.426;11.182;2023-08-20T11:49:03;3.87;;;3.60;;
11537;SDS011;50159;49.426;11.182;2023-08-20T11:54:07;8.60;;;3.30;;
11537;SDS011;50159;49.426;11.182;2023-08-20T11:56:51;3.93;;;3.53;;
11537;SDS011;50159;49.426;11.182;2023-08-20T11:59:18;3.30;;;3.10;;
11537;SDS011;50159;49.426;11.182;2023-08-20T12:01:56;3.93;;;3.63;;
11537;SDS011;50159;49.426;11.182;2023-08-20T12:04:25;6.60;;;3.73;;
11537;SDS011;50159;49.426;11.182;2023-08-20T12:07:09;4.10;;;3.70;;
11537;SDS011;50159;49.426;11.182;2023-08-20T12:09:40;4.10;;;3.77;;
11537;SDS011;50159;49.426;11.182;2023-08-20T12:12:08;3.73;;;3.43;;
11537;SDS011;50159;49.426;11.182;2023-08-20T12:14:35;4.07;;;3.63;;
11537;SDS011;50159;49.426;11.182;2023-08-20T12:17:02;4.50;;;4.20;;
11537;SDS011;50159;49.426;11.182;2023-08-20T12:19:32;3.77;;;3.40;;
11537;SDS011;50159;49.426;11.182;2023-08-20T12:21:58;3.27;;;3.07;;
11537;SDS011;50159;49.426;11.182;2023-08-20T12:24:25;3.27;;;3.07;;
11537;SDS011;50159;49.426;11.182;2023-08-20T12:26:52;3.67;;;3.37;;
11537;SDS011;50159;49.426;11.182;2023-08-20T12:29:19;4.10;;;3.63;;
11537;SDS011;50159;49.426;11.182;2023-08-20T12:31:46;4.47;;;4.10;;
11537;SDS011;50159;49.426;11.182;2023-08-20T12:34:13;4.70;;;4.40;;
11537;SDS011;50159;49.426;11.182;2023-08-20T12:36:40;3.70;;;3.50;;
11537;SDS011;50159;49.426;11.182;2023-08-20T12:39:06;4.20;;;3.90;;
11537;SDS011;50159;49.426;11.182;2023-08-20T12:41:34;3.80;;;3.60;;
11537;SDS011;50159;49.426;11.182;2023-08-20T12:44:02;3.93;;;3.70;;
11537;SDS011;50159;49.426;11.182;2023-08-20T12:46:29;3.80;;;3.60;;
11537;SDS011;50159;49.426;11.182;2023-08-20T12:48:56;4.40;;;4.10;;
11537;SDS011;50159;49.426;11.182;2023-08-20T12:51:23;3.63;;;3.33;;
11537;SDS011;50159;49.426;11.182;2023-08-20T12:53:49;4.87;;;3.43;;
11537;SDS011;50159;49.426;11.182;2023-08-20T12:56:16;3.70;;;3.40;;
11537;SDS011;50159;49.426;11.182;2023-08-20T12:58:43;3.97;;;3.50;;
11537;SDS011;50159;49.426;11.182;2023-08-20T13:01:10;8.77;;;3.63;;
11537;SDS011;50159;49.426;11.182;2023-08-20T13:03:37;3.67;;;3.47;;
11537;SDS011;50159;49.426;11.182;2023-08-20T13:06:05;4.00;;;3.70;;
11537;SDS011;50159;49.426;11.182;2023-08-20T13:08:32;6.73;;;4.10;;
11537;SDS011;50159;49.426;11.182;2023-08-20T13:10:59;4.70;;;3.70;;
11537;SDS011;50159;49.426;11.182;2023-08-20T13:13:29;4.07;;;3.70;;
11537;SDS011;50159;49.426;11.182;2023-08-20T13:16:00;4.10;;;3.80;;
11537;SDS011;50159;49.426;11.182;2023-08-20T13:18:28;3.83;;;3.57;;
11537;SDS011;50159;49.426;11.182;2023-08-20T13:20:55;3.90;;;3.40;;
11537;SDS011;50159;49.426;11.182;2023-08-20T13:23:22;3.83;;;3.57;;
11537;SDS011;50159;49.426;11.182;2023-08-20T13:25:49;3.50;;;3.30;;
11537;SDS011;50159;49.426;11.182;2023-08-20T13:28:16;3.30;;;3.10;;
11537;SDS011;50159;49.426;11.182;2023-08-20T13:30:44;3.33;;;3.20;;
11537;SDS011;50159;49.426;11.182;2023-08-20T13:33:11;3.20;;;3.00;;
11537;SDS011;50159;49.426;11.182;2023-08-20T13:35:41;3.87;;;3.40;;
11537;SDS011;50159;49.426;11.182;2023-08-20T13:38:08;4.47;;;4.07;;
11537;SDS011;50159;49.426;11.182;2023-08-20T13:40:35;3.17;;;3.03;;
11537;SDS011;50159;49.426;11.182;2023-08-20T13:43:02;3.33;;;3.20;;
11537;SDS011;50159;49.426;11.182;2023-08-20T13:45:29;3.70;;;3.40;;
11537;SDS011;50159;49.426;11.182;2023-08-20T13:47:57;3.73;;;3.50;;
11537;SDS011;50159;49.426;11.182;2023-08-20T13:50:24;4.03;;;3.40;;
11537;SDS011;50159;49.426;11.182;2023-08-20T13:52:50;5.80;;;3.20;;
11537;SDS011;50159;49.426;11.182;2023-08-20T13:55:17;5.67;;;3.97;;
11537;SDS011;50159;49.426;11.182;2023-08-20T13:57:44;3.80;;;3.60;;
11537;SDS011;50159;49.426;11.182;2023-08-20T14:00:11;3.50;;;3.30;;
11537;SDS011;50159;49.426;11.182;2023-08-20T14:02:39;3.57;;;3.37;;
11537;SDS011;50159;49.426;11.182;2023-08-20T14:05:06;3.30;;;3.10;;
11537;SDS011;50159;49.426;11.182;2023-08-20T14:07:33;3.30;;;3.10;;
11537;SDS011;50159;49.426;11.182;2023-08-20T14:10:01;3.37;;;3.17;;
11537;SDS011;50159;49.426;11.182;2023-08-20T14:12:30;4.60;;;3.33;;
11537;SDS011;50159;49.426;11.182;2023-08-20T14:14:56;3.67;;;3.40;;
11537;SDS011;50159;49.426;11.182;2023-08-20T14:17:23;4.67;;;4.23;;
11537;SDS011;50159;49.426;11.182;2023-08-20T14:19:50;5.60;;;3.67;;
11537;SDS011;50159;49.426;11.182;2023-08-20T14:22:17;6.77;;;4.17;;
11537;SDS011;50159;49.426;11.182;2023-08-20T14:24:44;4.23;;;3.70;;
11537;SDS011;50159;49.426;11.182;2023-08-20T14:27:11;4.13;;;3.80;;
11537;SDS011;50159;49.426;11.182;2023-08-20T14:29:37;3.70;;;3.37;;
11537;SDS011;50159;49.426;11.182;2023-08-20T14:32:04;4.37;;;3.30;;
11537;SDS011;50159;49.426;11.182;2023-08-20T14:34:31;3.67;;;3.47;;
11537;SDS011;50159;49.426;11.182;2023-08-20T14:36:58;4.67;;;3.50;;
11537;SDS011;50159;49.426;11.182;2023-08-20T14:39:25;5.50;;;3.30;;
11537;SDS011;50159;49.426;11.182;2023-08-20T14:41:51;3.10;;;3.00;;
11537;SDS011;50159;49.426;11.182;2023-08-20T14:44:18;2.90;;;2.80;;
11537;SDS011;50159;49.426;11.182;2023-08-20T14:46:45;3.05;;;2.72;;
11537;SDS011;50159;49.426;11.182;2023-08-20T14:49:11;3.10;;;2.67;;